Blandford, James
United StatesManBorn 19702007 – 2026Runner id 77984
Events
52
2007 – 2026
Best pace
12.097
km/h · 2013
Best finish
1st
of 282 · 2015
Distance raced
4,992
km · splits not double-counted
Pace over time
km/h · higher is faster
Pace over time: 52 races from 2007 to 2026, ranging from 3.97 to 12.69 kilometres per hour, where higher is faster. A second, age-graded series is drawn above it; the gap between the two is the age credit.
- Actual pace
- Age-graded pace
Results
| Date | Event | Distance | Result | Pace km/h | Placing |
|---|---|---|---|---|---|
| 2007-03-24 | The HAT Run 50KUnited States | 50km | 5:20:22 h | 9.364 | 69/321 |
| 2007-04-14 | 50mi | 8:44:07 h | 9.212 | 44/301 | |
| 2007-05-19 | 100mi | 28:26:37 h | 5.658 | 23/94 | |
| 2007-10-07 | 50km | 4:40:33 h | 10.693 | 7/89 | |
| 2008-03-29 | 50km | 4:57:13 h | 10.094 | 32/328 | |
| 2008-04-12 | 50mi | 8:20:24 h | 9.648 | 16/265 | |
| 2009-03-31 | 50km | 5:15:06 h | 9.521 | 43/385 | |
| 2009-04-18 | 50mi | 8:41:34 h | 9.257 | 33/266 | |
| 2009-07-18 | Lone Ranger 24 hr Ultra-MarathonUnited States | 24h | 169.933 km | 7.081 | 7/152 |
| 2010-03-20 | 50km | 4:50:51 h | 10.315 | 13/336 | |
| 2010-05-15 | 100mi | 23:06:05 h | 6.966 | 7/114 | |
| 2010-07-17 | 24h | 95.260 km | 3.969 | 78/158 | |
| 2011-03-19 | 50km | 4:21:37 h | 11.467 | 6/362 | |
| 2011-04-09 | 50mi | 7:15:27 h | 11.087 | 7/320 | |
| 2011-09-04 | 12h | 104.607 km | 8.717 | 2/136 | |
| 2012-03-24 | 50km | 4:27:04 h | 11.233 | 9/389 | |
| 2012-04-14 | 50mi | 6:59:35 h | 11.507 | 5/302 | |
| 2012-05-12 | 100mi | 20:31:12 h | 7.843 | 3/126 | |
| 2012-09-02 | 12h | 120.700 km | 10.058 | 1/162 | |
| 2013-03-23 | 50km | 4:15:41 h | 11.733 | 6/363 | |
| 2013-04-13 | 50mi | 6:39:07 h | 12.097 | 2/296 | |
| 2013-05-18 | 100mi | 18:30:53 h | 8.692 | 1/151 | |
| 2013-07-20 | 12 hour Running with the DevilUnited States | 12h | 60.000 km | 5.000 | 1/6 |
| 2013-09-01 | 12h | 112.654 km | 9.388 | 1/115 | |
| 2013-09-21 | Virgil Crest 100 Mile UltraUnited States | 100mi | 21:11:00 h | 7.597 | 1/18 |
| 2014-03-22 | 50km | 4:12:06 h | 11.900 | 2/382 | |
| 2014-04-12 | 50mi | 6:41:54 h | 12.013 | 2/272 | |
| 2014-05-17 | 100mi | 19:21:45 h | 8.312 | 3/141 | |
| 2014-07-19 | 12h | 86.904 km | 7.242 | 1/19 | |
| 2014-08-16 | 100mi | 21:53:39 h | 7.351 | 2/72 | |
| 2014-08-31 | 12h | 112.654 km | 9.388 | 1/146 | |
| 2014-09-20 | Virgil Crest 50 Mile UltraUnited States | 50mi | 8:52:00 h | 9.075 | 3/96 |
| 2015-03-21 | 50km | 4:25:35 h | 11.296 | 2/277 | |
| 2015-04-11 | 50mi | 6:55:30 h | 11.620 | 1/282 | |
| 2015-09-06 | Labor Pain 12 Hour Endurance Trail RunUnited States | 12h | 112.654 km | 9.388 | 1/170 |
| 2015-09-19 | 50mi | 8:45:00 h | 9.196 | 3/61 | |
| 2016-09-04 | 12h | 72.420 km | 6.035 | 62/230 | |
| 2018-04-07 | 50mi | 7:26:19 h | 10.818 | 3/233 | |
| 2018-09-02 | 12h | 112.654 km | 9.388 | 1/275 | |
| 2019-04-13 | 50mi | 7:57:16 h | 10.116 | 1/159 | |
| 2019-09-01 | 12h | 112.654 km | 9.388 | 2/302 | |
| 2021-09-11 | 50mi | 10:25:00 h | 7.725 | 1/35 | |
| 2022-04-09 | 50mi | 7:36:39 h | 10.573 | 2/149 | |
| 2022-09-10 | 50mi | 9:13:00 h | 8.731 | 1/22 | |
| 2023-04-15 | Bull Run Run 50 MilerUnited States | 50mi | 7:27:58 h | 10.778 | 1/137 |
| 2023-09-09 | 50mi | 9:15:52 h | 8.686 | 1/14 | |
| 2024-04-06 | 50mi | 8:05:14 h | 9.950 | 5/151 | |
| 2025-04-05 | 50mi | 7:52:53 h | 10.210 | 2/153 | |
| 2025-05-17 | 100mi | 21:20:55 h | 7.538 | 3/94 | |
| 2025-08-09 | 100mi | 26:51:40 h | 5.991 | 10/133 |
Showing 1–50 of 52